Terminal Aerodrome Forecast
Issued by NWS

Home | Current Version | Previous Version | Text Only | Print | Product List | Glossary Off
Versions: 1 2 3 4 5 6 7 8 9 10 11 12 13 14 15 16 17 18 19 20

980
FTUS43 KGRB 280240 AAB
TAFATW
TAF AMD
KATW 280240Z 2803/2824 12012KT 4SM BR SCT006 OVC025
      TEMPO 2803/2806 1SM -SHRA BR BKN006
     FM280600 15006KT 4SM BR OVC025
     FM281300 18009KT 3SM BR OVC003
     FM281500 18010KT P6SM VCSH BKN003
     FM282000 19011KT P6SM VCSH BKN045=

USA.gov is the U.S. government's official web portal to all federal, state and local government web resources and services.